createdAt,value
2022-12-27T00:00:09.215Z,99.17
2022-12-27T00:02:38.671Z,99.05
2022-12-27T00:05:11.106Z,99.11
2022-12-27T00:07:39.193Z,98.93
2022-12-27T00:10:09.078Z,99.59
2022-12-27T00:12:38.977Z,99.85
2022-12-27T00:15:08.103Z,99.57
2022-12-27T00:17:36.082Z,100.00
2022-12-27T00:20:11.473Z,99.66
2022-12-27T00:22:40.707Z,100.00
2022-12-27T00:25:09.995Z,100.00
2022-12-27T00:27:39.741Z,100.00
2022-12-27T00:30:09.418Z,100.00
2022-12-27T00:32:37.575Z,100.00
2022-12-27T00:35:06.643Z,100.00
2022-12-27T00:37:34.698Z,100.00
2022-12-27T00:40:02.796Z,100.00
2022-12-27T00:42:30.825Z,100.00
2022-12-27T00:45:00.334Z,100.00
2022-12-27T00:47:28.383Z,100.00
2022-12-27T00:49:56.470Z,100.00
2022-12-27T00:52:24.534Z,100.00
2022-12-27T00:54:52.432Z,100.00
2022-12-27T00:57:20.379Z,100.00
2022-12-27T00:59:49.351Z,100.00
2022-12-27T01:02:18.773Z,100.00
2022-12-27T01:04:46.752Z,100.00
2022-12-27T01:07:14.717Z,100.00
2022-12-27T01:09:42.703Z,100.00
2022-12-27T01:12:10.671Z,100.00
2022-12-27T01:14:38.702Z,100.00
2022-12-27T01:17:06.865Z,100.00
2022-12-27T01:19:38.011Z,100.00
2022-12-27T01:22:07.531Z,100.00
2022-12-27T01:24:35.729Z,100.00
2022-12-27T01:27:03.874Z,100.00
2022-12-27T01:29:31.884Z,100.00
2022-12-27T01:31:59.850Z,100.00
2022-12-27T01:34:28.123Z,100.00
2022-12-27T01:36:57.438Z,100.00
2022-12-27T01:39:25.456Z,100.00
2022-12-27T01:42:11.220Z,100.00
2022-12-27T01:44:57.736Z,100.00
2022-12-27T01:47:36.319Z,100.00
2022-12-27T01:50:17.295Z,100.00
2022-12-27T01:52:49.568Z,100.00
2022-12-27T01:55:30.003Z,100.00
2022-12-27T01:58:01.769Z,100.00
2022-12-27T02:00:31.710Z,100.00
2022-12-27T02:03:00.851Z,100.00
2022-12-27T02:05:30.315Z,100.00
2022-12-27T02:08:13.686Z,100.00
2022-12-27T02:10:42.511Z,100.00
2022-12-27T02:13:11.018Z,100.00
2022-12-27T02:15:39.045Z,100.00
2022-12-27T02:18:07.404Z,100.00
2022-12-27T02:20:56.048Z,100.00
2022-12-27T02:24:07.175Z,100.00
2022-12-27T02:26:48.040Z,100.00
2022-12-27T02:29:49.171Z,100.00
2022-12-27T02:32:23.139Z,100.00
2022-12-27T02:35:01.613Z,100.00
2022-12-27T02:37:35.291Z,100.00
2022-12-27T02:40:22.225Z,100.00
2022-12-27T02:43:09.050Z,100.00
2022-12-27T02:46:01.355Z,100.00
2022-12-27T02:48:46.556Z,100.00
2022-12-27T02:51:47.755Z,100.00
2022-12-27T02:54:28.515Z,100.00
2022-12-27T02:57:10.241Z,100.00
2022-12-27T03:00:17.961Z,100.00
2022-12-27T03:03:24.179Z,100.00
2022-12-27T03:06:46.158Z,100.00
2022-12-27T03:09:53.384Z,100.00
2022-12-27T03:12:47.635Z,100.00
2022-12-27T03:15:48.515Z,100.00
2022-12-27T03:18:23.016Z,100.00
2022-12-27T03:21:08.493Z,100.00
2022-12-27T03:24:03.261Z,100.00
2022-12-27T03:26:35.814Z,100.00
2022-12-27T03:29:23.727Z,100.00
2022-12-27T03:32:13.376Z,100.00
2022-12-27T03:34:47.005Z,100.00
2022-12-27T03:37:36.309Z,100.00
2022-12-27T03:40:08.870Z,100.00
2022-12-27T03:42:57.223Z,100.00
2022-12-27T03:45:45.388Z,100.00
2022-12-27T03:48:18.063Z,100.00
2022-12-27T03:50:55.272Z,100.00
2022-12-27T03:53:30.188Z,100.00
2022-12-27T03:55:58.781Z,100.00
2022-12-27T03:58:26.942Z,100.00
2022-12-27T04:00:54.993Z,100.00
2022-12-27T04:03:23.085Z,100.00
2022-12-27T04:05:52.641Z,100.00
2022-12-27T04:08:38.106Z,100.00
2022-12-27T04:11:23.332Z,100.00
2022-12-27T04:14:08.471Z,100.00
2022-12-27T04:16:53.609Z,100.00
2022-12-27T04:19:38.749Z,100.00
2022-12-27T04:22:25.637Z,100.00
2022-12-27T04:25:11.049Z,100.00
2022-12-27T04:27:56.367Z,100.00
2022-12-27T04:30:41.616Z,100.00
2022-12-27T04:33:27.196Z,100.00
2022-12-27T04:35:55.199Z,100.00
2022-12-27T04:38:24.674Z,100.00
2022-12-27T04:41:09.960Z,100.00
2022-12-27T04:43:55.155Z,100.00
2022-12-27T04:46:42.860Z,100.00
2022-12-27T04:49:33.522Z,100.00
2022-12-27T04:52:18.779Z,100.00
2022-12-27T04:55:00.185Z,100.00
2022-12-27T04:57:29.073Z,100.00
2022-12-27T05:00:14.454Z,100.00
2022-12-27T05:02:43.548Z,100.00
2022-12-27T05:05:12.565Z,100.00
2022-12-27T05:07:58.325Z,100.00
2022-12-27T05:10:45.722Z,100.00
2022-12-27T05:13:31.597Z,100.00
2022-12-27T05:16:02.010Z,100.00
2022-12-27T05:18:30.147Z,100.00
2022-12-27T05:21:03.541Z,100.00
2022-12-27T05:23:48.989Z,100.00
2022-12-27T05:26:22.939Z,100.00
2022-12-27T05:28:52.599Z,100.00
2022-12-27T05:31:22.111Z,100.00
2022-12-27T05:33:50.887Z,100.00
2022-12-27T05:36:19.926Z,100.00
2022-12-27T05:38:48.077Z,100.00
2022-12-27T05:41:16.565Z,100.00
2022-12-27T05:43:45.995Z,100.00
2022-12-27T05:46:16.609Z,100.00
2022-12-27T05:48:44.610Z,100.00
2022-12-27T05:51:14.910Z,100.00
2022-12-27T05:53:43.128Z,100.00
2022-12-27T05:56:15.305Z,100.00
2022-12-27T05:58:43.569Z,100.00
2022-12-27T06:01:14.797Z,100.00
2022-12-27T06:03:43.199Z,100.00
2022-12-27T06:06:11.769Z,100.00
2022-12-27T06:08:40.784Z,100.00
2022-12-27T06:11:11.424Z,100.00
2022-12-27T06:13:52.068Z,100.00
2022-12-27T06:16:23.214Z,100.00
2022-12-27T06:18:51.750Z,100.00
2022-12-27T06:21:21.950Z,100.00
2022-12-27T06:23:51.642Z,100.00
2022-12-27T06:26:21.924Z,100.00
2022-12-27T06:28:50.334Z,100.00
2022-12-27T06:31:19.094Z,100.00
2022-12-27T06:33:49.717Z,100.00
2022-12-27T06:36:19.431Z,100.00
2022-12-27T06:38:48.932Z,100.00
2022-12-27T06:41:19.588Z,100.00
2022-12-27T06:43:48.478Z,100.00
2022-12-27T06:46:18.974Z,100.00
2022-12-27T06:48:48.803Z,100.00
2022-12-27T06:51:18.618Z,100.00
2022-12-27T06:53:46.743Z,100.00
2022-12-27T06:56:17.123Z,100.00
2022-12-27T06:58:45.535Z,100.00
2022-12-27T07:01:15.460Z,100.00
2022-12-27T07:03:43.807Z,100.00
2022-12-27T07:06:13.227Z,100.00
2022-12-27T07:08:41.581Z,100.00
2022-12-27T07:11:12.307Z,100.00
2022-12-27T07:13:42.822Z,100.00
2022-12-27T07:16:13.606Z,100.00
2022-12-27T07:18:42.142Z,100.00
2022-12-27T07:21:14.688Z,100.00
2022-12-27T07:23:43.335Z,100.00
2022-12-27T07:26:13.675Z,100.00
2022-12-27T07:28:43.752Z,100.00
2022-12-27T07:31:13.963Z,100.00
2022-12-27T07:33:42.356Z,100.00
2022-12-27T07:36:16.549Z,100.00
2022-12-27T07:38:47.083Z,100.00
2022-12-27T07:41:15.711Z,100.00
2022-12-27T07:43:44.458Z,100.00
2022-12-27T07:46:14.791Z,100.00
2022-12-27T07:48:43.623Z,100.00
2022-12-27T07:51:12.691Z,100.00
2022-12-27T07:53:42.501Z,100.00
2022-12-27T07:56:13.009Z,100.00
2022-12-27T07:58:42.211Z,100.00
2022-12-27T08:01:11.697Z,100.00
2022-12-27T08:03:41.886Z,100.00
2022-12-27T08:06:19.945Z,100.00
2022-12-27T08:08:50.510Z,100.00
2022-12-27T08:11:21.157Z,100.00
2022-12-27T08:13:49.480Z,100.00
2022-12-27T08:16:21.557Z,100.00
2022-12-27T08:18:49.996Z,100.00
2022-12-27T08:21:18.433Z,100.00
2022-12-27T08:23:46.596Z,100.00
2022-12-27T08:26:16.910Z,100.00
2022-12-27T08:28:44.877Z,100.00
2022-12-27T08:31:15.066Z,100.00
2022-12-27T08:33:43.154Z,100.00
2022-12-27T08:36:45.139Z,100.00
2022-12-27T08:39:01.595Z,100.00
2022-12-27T08:41:31.067Z,100.00
2022-12-27T08:43:59.054Z,100.00
2022-12-27T08:46:27.272Z,100.00
2022-12-27T08:48:55.353Z,100.00
2022-12-27T08:51:32.665Z,100.00
2022-12-27T08:54:04.092Z,100.00
2022-12-27T08:56:33.463Z,100.00
2022-12-27T08:59:01.578Z,100.00
2022-12-27T09:01:30.148Z,100.00
2022-12-27T09:04:00.881Z,100.00
2022-12-27T09:06:28.886Z,100.00
2022-12-27T09:08:58.389Z,100.00
2022-12-27T09:11:28.754Z,100.00
2022-12-27T09:14:00.968Z,100.00
2022-12-27T09:16:30.094Z,100.00
2022-12-27T09:19:00.615Z,100.00
2022-12-27T09:21:32.781Z,100.00
2022-12-27T09:24:03.851Z,100.00
2022-12-27T09:26:32.503Z,100.00
2022-12-27T09:29:02.444Z,100.00
2022-12-27T09:31:33.334Z,100.00
2022-12-27T09:34:01.620Z,100.00
2022-12-27T09:36:31.133Z,100.00
2022-12-27T09:39:02.305Z,100.00
2022-12-27T09:44:40.926Z,100.00
2022-12-27T09:47:14.026Z,100.00
2022-12-27T09:49:46.587Z,100.00
2022-12-27T09:52:20.228Z,100.00
2022-12-27T09:55:04.427Z,100.00
2022-12-27T09:57:38.132Z,100.00
2022-12-27T10:00:14.801Z,100.00
2022-12-27T10:02:44.619Z,100.00
2022-12-27T10:05:21.907Z,100.00
2022-12-27T10:08:10.174Z,100.00
2022-12-27T10:10:44.639Z,100.00
2022-12-27T10:13:30.470Z,100.00
2022-12-27T10:16:11.685Z,100.00
2022-12-27T10:18:50.578Z,100.00
2022-12-27T10:21:23.457Z,100.00
2022-12-27T10:23:56.923Z,100.00
2022-12-27T10:26:25.111Z,100.00
2022-12-27T10:28:57.736Z,100.00
2022-12-27T10:31:28.231Z,100.00
2022-12-27T10:33:58.129Z,100.00
2022-12-27T10:36:28.224Z,100.00
2022-12-27T10:38:56.311Z,100.00
2022-12-27T10:41:33.618Z,100.00
2022-12-27T10:44:01.656Z,100.00
2022-12-27T10:46:33.986Z,100.00
2022-12-27T10:49:21.606Z,100.00
2022-12-27T10:51:52.429Z,100.00
2022-12-27T10:54:24.837Z,100.00
2022-12-27T10:56:54.473Z,100.00
2022-12-27T10:59:24.066Z,100.00
2022-12-27T11:02:18.326Z,100.00
2022-12-27T11:04:59.282Z,100.00
2022-12-27T11:07:32.216Z,100.00
2022-12-27T11:10:14.748Z,100.00
2022-12-27T11:12:56.151Z,100.00
2022-12-27T11:15:24.432Z,100.00
2022-12-27T11:17:57.510Z,100.00
2022-12-27T11:20:30.252Z,100.00
2022-12-27T11:23:02.784Z,100.00
2022-12-27T11:25:32.072Z,100.00
2022-12-27T11:28:04.385Z,100.00
2022-12-27T11:30:35.617Z,100.00
2022-12-27T11:33:19.620Z,100.00
2022-12-27T11:35:54.061Z,100.00
2022-12-27T11:38:26.320Z,100.00
2022-12-27T11:41:04.288Z,100.00
2022-12-27T11:43:36.914Z,100.00
2022-12-27T11:46:07.291Z,100.00
2022-12-27T11:48:39.761Z,100.00
2022-12-27T11:51:31.230Z,100.00
2022-12-27T11:54:22.326Z,100.00
2022-12-27T11:56:54.209Z,100.00
2022-12-27T11:59:33.024Z,100.00
2022-12-27T12:02:28.534Z,100.00
2022-12-27T12:05:37.683Z,100.00
2022-12-27T12:08:34.105Z,100.00
2022-12-27T12:11:15.303Z,100.00
2022-12-27T12:14:18.141Z,100.00
2022-12-27T12:17:16.734Z,100.00
2022-12-27T12:20:01.924Z,100.00
2022-12-27T12:22:39.048Z,100.00
2022-12-27T12:25:37.076Z,100.00
2022-12-27T12:28:57.104Z,100.00
2022-12-27T12:31:37.921Z,100.00
2022-12-27T12:34:37.367Z,100.00
2022-12-27T12:37:16.974Z,100.00
2022-12-27T12:40:01.677Z,100.00
2022-12-27T12:42:38.594Z,100.00
2022-12-27T12:45:45.074Z,100.00
2022-12-27T12:48:26.985Z,100.00
2022-12-27T12:51:22.936Z,100.00
2022-12-27T12:54:03.498Z,100.00
2022-12-27T12:57:00.143Z,100.00
2022-12-27T12:59:42.880Z,100.00
2022-12-27T13:02:30.036Z,100.00
2022-12-27T13:05:16.727Z,100.00
2022-12-27T13:08:00.102Z,100.00
2022-12-27T13:10:51.556Z,100.00
2022-12-27T13:13:27.356Z,100.00
2022-12-27T13:16:13.006Z,100.00
2022-12-27T13:18:52.111Z,100.00
2022-12-27T13:21:30.304Z,100.00
2022-12-27T13:24:08.411Z,100.00
2022-12-27T13:26:47.295Z,100.00
2022-12-27T13:29:33.358Z,100.00
2022-12-27T13:32:08.499Z,100.00
2022-12-27T13:34:45.265Z,100.00
2022-12-27T13:37:24.195Z,100.00
2022-12-27T13:40:30.310Z,100.00
2022-12-27T13:43:28.278Z,100.00
2022-12-27T13:46:13.864Z,100.00
2022-12-27T13:48:56.122Z,100.00
2022-12-27T13:51:43.959Z,100.00
2022-12-27T13:55:03.808Z,100.00
2022-12-27T13:58:04.383Z,100.00
2022-12-27T14:00:39.446Z,100.00
2022-12-27T14:03:47.336Z,100.00
2022-12-27T14:06:29.871Z,100.00
2022-12-27T14:09:24.059Z,100.00
2022-12-27T14:12:04.789Z,100.00
2022-12-27T14:14:35.920Z,100.00
2022-12-27T14:17:20.768Z,100.00
2022-12-27T14:20:09.776Z,100.00
2022-12-27T14:23:01.807Z,100.00
2022-12-27T14:26:07.145Z,100.00
2022-12-27T14:29:13.561Z,100.00
2022-12-27T14:32:07.418Z,100.00
2022-12-27T14:35:10.528Z,100.00
2022-12-27T14:38:29.517Z,100.00
2022-12-27T14:41:38.291Z,100.00
2022-12-27T14:44:42.837Z,100.00
2022-12-27T14:47:32.935Z,100.00
2022-12-27T14:50:39.588Z,100.00
2022-12-27T14:53:52.991Z,100.00
2022-12-27T14:56:32.677Z,100.00
2022-12-27T14:59:20.391Z,100.00
2022-12-27T15:02:01.987Z,100.00
2022-12-27T15:04:58.593Z,100.00
2022-12-27T15:07:48.090Z,100.00
2022-12-27T15:10:22.333Z,100.00
2022-12-27T15:13:00.877Z,100.00
2022-12-27T15:15:45.019Z,100.00
2022-12-27T15:18:24.776Z,100.00
2022-12-27T15:21:09.640Z,100.00
2022-12-27T15:23:48.906Z,100.00
2022-12-27T15:26:27.605Z,100.00
2022-12-27T15:29:21.312Z,100.00
2022-12-27T15:32:02.171Z,100.00
2022-12-27T15:34:42.680Z,100.00
2022-12-27T15:37:43.767Z,100.00
2022-12-27T15:40:39.876Z,100.00
2022-12-27T15:43:23.554Z,100.00
2022-12-27T15:46:09.362Z,100.00
2022-12-27T15:49:02.076Z,100.00
2022-12-27T15:51:36.573Z,100.00
2022-12-27T15:54:15.098Z,100.00
2022-12-27T15:57:02.207Z,100.00
2022-12-27T15:59:49.220Z,100.00
2022-12-27T16:02:32.114Z,100.00
2022-12-27T16:05:06.429Z,100.00
2022-12-27T16:07:38.601Z,100.00
2022-12-27T16:10:30.037Z,100.00
2022-12-27T16:13:02.834Z,100.00
2022-12-27T16:15:41.108Z,100.00
2022-12-27T16:18:50.034Z,100.00
2022-12-27T16:21:22.386Z,100.00
2022-12-27T16:23:55.843Z,100.00
2022-12-27T16:26:27.501Z,100.00
2022-12-27T16:29:00.917Z,100.00
2022-12-27T16:31:31.137Z,100.00
2022-12-27T16:34:00.943Z,100.00
2022-12-27T16:36:32.359Z,100.00
2022-12-27T16:39:29.255Z,100.00
2022-12-27T16:42:03.673Z,100.00
2022-12-27T16:44:59.091Z,100.00
2022-12-27T16:47:50.680Z,100.00
2022-12-27T16:50:40.970Z,100.00
2022-12-27T16:53:19.329Z,100.00
2022-12-27T16:56:18.921Z,100.00
2022-12-27T16:58:47.078Z,100.00
2022-12-27T17:02:01.632Z,100.00
2022-12-27T17:04:53.232Z,100.00
2022-12-27T17:08:10.925Z,100.00
2022-12-27T17:11:00.313Z,100.00
2022-12-27T17:13:46.295Z,100.00
2022-12-27T17:16:23.917Z,100.00
2022-12-27T17:18:56.220Z,100.00
2022-12-27T17:21:30.716Z,100.00
2022-12-27T17:24:02.678Z,100.00
2022-12-27T17:26:59.427Z,100.00
2022-12-27T17:29:56.477Z,100.00
2022-12-27T17:32:41.155Z,100.00
2022-12-27T17:35:15.035Z,100.00
2022-12-27T17:37:52.631Z,100.00
2022-12-27T17:40:34.493Z,100.00
2022-12-27T17:43:36.087Z,100.00
2022-12-27T17:46:21.201Z,100.00
2022-12-27T17:48:49.363Z,100.00
2022-12-27T17:51:22.607Z,100.00
2022-12-27T17:54:09.363Z,100.00
2022-12-27T17:57:03.288Z,100.00
2022-12-27T17:59:34.172Z,100.00
2022-12-27T18:02:07.325Z,100.00
2022-12-27T18:04:37.396Z,100.00
2022-12-27T18:07:08.846Z,100.00
2022-12-27T18:09:40.903Z,100.00
2022-12-27T18:12:16.420Z,100.00
2022-12-27T18:14:45.412Z,100.00
2022-12-27T18:17:29.395Z,100.00
2022-12-27T18:19:57.412Z,100.00
2022-12-27T18:22:28.063Z,100.00
2022-12-27T18:24:56.271Z,100.00
2022-12-27T18:27:26.084Z,100.00
2022-12-27T18:29:54.825Z,100.00
2022-12-27T18:32:29.945Z,100.00
2022-12-27T18:35:03.927Z,100.00
2022-12-27T18:37:36.415Z,100.00
2022-12-27T18:40:30.641Z,100.00
2022-12-27T18:42:58.838Z,100.00
2022-12-27T18:45:30.310Z,100.00
2022-12-27T18:48:00.417Z,100.00
2022-12-27T18:50:30.793Z,100.00
2022-12-27T18:53:04.133Z,100.00
2022-12-27T18:55:32.326Z,100.00
2022-12-27T18:58:05.687Z,100.00
2022-12-27T19:00:33.870Z,100.00
2022-12-27T19:03:14.900Z,100.00
2022-12-27T19:05:59.928Z,99.43
2022-12-27T19:08:34.408Z,100.00
2022-12-27T19:11:03.641Z,99.66
2022-12-27T19:13:39.646Z,99.22
2022-12-27T19:16:08.304Z,99.92
2022-12-27T19:18:38.556Z,100.00
2022-12-27T19:21:08.182Z,99.69
2022-12-27T19:23:39.481Z,99.27
2022-12-27T19:26:22.507Z,99.95
2022-12-27T19:29:03.515Z,99.29
2022-12-27T19:31:31.801Z,99.64
2022-12-27T19:34:03.463Z,99.35
2022-12-27T19:36:33.945Z,99.11
2022-12-27T19:39:03.457Z,99.18
2022-12-27T19:41:31.856Z,98.87
2022-12-27T19:43:59.928Z,99.21
2022-12-27T19:46:31.162Z,99.89
2022-12-27T19:51:47.906Z,99.13
2022-12-27T19:54:19.744Z,99.15
2022-12-27T19:56:48.377Z,98.87
2022-12-27T19:59:18.372Z,98.80
2022-12-27T20:01:47.397Z,98.20
2022-12-27T20:04:19.829Z,98.33
2022-12-27T20:06:49.879Z,98.52
2022-12-27T20:09:20.639Z,98.87
2022-12-27T20:11:50.347Z,98.19
2022-12-27T20:14:18.645Z,98.05
2022-12-27T20:16:48.464Z,98.04
2022-12-27T20:19:18.382Z,97.65
2022-12-27T20:21:46.527Z,97.86
2022-12-27T20:24:15.374Z,97.38
2022-12-27T20:26:45.274Z,96.85
2022-12-27T20:29:15.309Z,97.09
2022-12-27T20:31:46.273Z,96.61
2022-12-27T20:34:24.824Z,96.67
2022-12-27T20:36:55.305Z,96.50
2022-12-27T20:39:23.530Z,96.36
2022-12-27T20:41:52.940Z,96.09
2022-12-27T20:44:20.984Z,96.19
2022-12-27T20:46:50.080Z,95.79
2022-12-27T20:49:18.116Z,96.24
2022-12-27T20:51:46.314Z,94.42
2022-12-27T20:54:16.665Z,94.93
2022-12-27T20:56:44.698Z,94.82
2022-12-27T20:59:14.431Z,94.53
2022-12-27T21:01:42.514Z,94.70
2022-12-27T21:04:11.038Z,94.05
2022-12-27T21:06:39.325Z,94.53
2022-12-27T21:09:08.571Z,95.01
2022-12-27T21:11:37.151Z,94.34
2022-12-27T21:14:06.130Z,94.62
2022-12-27T21:16:36.632Z,94.44
2022-12-27T21:19:07.398Z,94.52
2022-12-27T21:21:37.863Z,93.82
2022-12-27T21:24:08.293Z,94.26
2022-12-27T21:26:38.253Z,93.62
2022-12-27T21:29:08.024Z,94.53
2022-12-27T21:31:38.326Z,94.57
2022-12-27T21:34:07.204Z,94.47
2022-12-27T21:36:36.123Z,94.32
2022-12-27T21:39:05.682Z,94.58
2022-12-27T21:41:35.611Z,94.63
2022-12-27T21:44:04.792Z,94.37
2022-12-27T21:46:35.327Z,94.51
2022-12-27T21:49:06.501Z,94.74
2022-12-27T21:51:37.856Z,95.93
2022-12-27T21:54:09.637Z,94.96
2022-12-27T21:56:39.383Z,95.00
2022-12-27T21:59:11.189Z,95.09
2022-12-27T22:01:51.038Z,95.07
2022-12-27T22:04:22.602Z,95.60
2022-12-27T22:06:51.316Z,95.77
2022-12-27T22:09:19.744Z,96.16
2022-12-27T22:11:48.516Z,95.70
2022-12-27T22:14:16.832Z,96.63
2022-12-27T22:16:44.802Z,96.51
2022-12-27T22:19:14.261Z,97.56
2022-12-27T22:21:44.028Z,97.34
2022-12-27T22:24:19.593Z,98.66
2022-12-27T22:26:50.221Z,99.11
2022-12-27T22:29:18.689Z,99.54
2022-12-27T22:31:49.247Z,100.00
2022-12-27T22:34:17.299Z,100.00
2022-12-27T22:36:46.818Z,100.00
2022-12-27T22:39:14.835Z,100.00
2022-12-27T22:41:42.881Z,100.00
2022-12-27T22:44:12.744Z,100.00
2022-12-27T22:49:29.825Z,100.00
2022-12-27T22:51:59.265Z,100.00
2022-12-27T22:55:03.065Z,100.00
2022-12-27T22:57:15.352Z,100.00
2022-12-27T22:59:43.534Z,100.00
2022-12-27T23:02:11.643Z,100.00
2022-12-27T23:04:40.078Z,100.00
2022-12-27T23:07:09.690Z,100.00
2022-12-27T23:09:42.795Z,100.00
2022-12-27T23:12:11.329Z,100.00
2022-12-27T23:14:42.266Z,100.00
2022-12-27T23:17:10.613Z,100.00
2022-12-27T23:19:40.998Z,100.00
2022-12-27T23:22:10.543Z,100.00
2022-12-27T23:24:38.723Z,100.00
2022-12-27T23:27:06.958Z,100.00
2022-12-27T23:29:35.111Z,100.00
2022-12-27T23:32:03.345Z,100.00
2022-12-27T23:34:31.432Z,100.00
2022-12-27T23:37:01.227Z,100.00
2022-12-27T23:39:30.911Z,100.00
2022-12-27T23:41:59.086Z,100.00
2022-12-27T23:44:33.746Z,100.00
2022-12-27T23:47:03.809Z,100.00
2022-12-27T23:49:32.003Z,100.00
2022-12-27T23:52:00.220Z,100.00
2022-12-27T23:54:28.406Z,100.00
2022-12-27T23:56:58.000Z,100.00
2022-12-27T23:59:26.251Z,100.00
